createdAt,value
2023-03-01T00:01:35.382Z,97988.06
2023-03-01T00:04:03.451Z,97991.50
2023-03-01T00:06:30.637Z,97987.06
2023-03-01T00:08:58.269Z,97987.41
2023-03-01T00:11:28.597Z,97982.00
2023-03-01T00:14:02.022Z,97977.56
2023-03-01T00:17:02.547Z,97973.25
2023-03-01T00:19:34.344Z,97972.22
2023-03-01T00:22:11.460Z,97959.84
2023-03-01T00:25:08.526Z,97963.19
2023-03-01T00:27:36.260Z,97956.44
2023-03-01T00:30:04.140Z,97958.41
2023-03-01T00:32:45.387Z,97963.53
2023-03-01T00:35:13.144Z,97956.34
2023-03-01T00:37:44.180Z,97954.13
2023-03-01T00:40:18.419Z,97949.00
2023-03-01T00:42:48.745Z,97937.63
2023-03-01T00:45:19.312Z,97928.50
2023-03-01T00:48:02.660Z,97926.06
2023-03-01T00:50:31.530Z,97934.28
2023-03-01T00:53:02.631Z,97931.06
2023-03-01T00:55:33.212Z,97929.59
2023-03-01T00:58:06.042Z,97915.50
2023-03-01T01:03:42.382Z,97925.19
2023-03-01T01:06:15.664Z,97910.47
2023-03-01T01:08:45.679Z,97921.75
2023-03-01T01:11:16.976Z,97919.69
2023-03-01T01:14:12.050Z,97919.53
2023-03-01T01:16:40.581Z,97922.97
2023-03-01T01:21:50.386Z,97919.53
2023-03-01T01:24:17.948Z,97925.69
2023-03-01T01:26:51.117Z,97920.56
2023-03-01T01:29:31.362Z,97923.06
2023-03-01T01:31:58.939Z,97920.75
2023-03-01T01:34:26.790Z,97920.63
2023-03-01T01:36:57.769Z,97912.97
2023-03-01T01:39:25.897Z,97919.31
2023-03-01T01:41:56.538Z,97922.09
2023-03-01T01:47:40.287Z,97907.97
2023-03-01T01:50:21.973Z,97901.81
2023-03-01T01:53:42.713Z,97911.59
2023-03-01T01:56:13.488Z,97910.00
2023-03-01T01:58:43.963Z,97913.25
2023-03-01T02:01:14.172Z,97905.25
2023-03-01T02:03:50.185Z,97912.97
2023-03-01T02:06:30.349Z,97914.69
2023-03-01T02:09:03.524Z,97909.47
2023-03-01T02:11:32.334Z,97906.00
2023-03-01T02:14:00.710Z,97904.91
2023-03-01T02:16:28.423Z,97903.84
2023-03-01T02:19:02.459Z,97910.13
2023-03-01T02:22:03.263Z,97905.34
2023-03-01T02:24:43.512Z,97902.00
2023-03-01T02:27:12.605Z,97894.72
2023-03-01T02:30:05.416Z,97897.78
2023-03-01T02:32:32.754Z,97896.19
2023-03-01T02:35:00.436Z,97892.75
2023-03-01T02:37:40.237Z,97884.28
2023-03-01T02:40:13.046Z,97885.41
2023-03-01T02:42:53.553Z,97889.88
2023-03-01T02:45:24.419Z,97895.47
2023-03-01T02:47:54.764Z,97894.81
2023-03-01T02:50:55.886Z,97885.56
2023-03-01T02:53:55.456Z,97894.25
2023-03-01T02:56:22.624Z,97882.88
2023-03-01T02:58:53.100Z,97886.41
2023-03-01T03:01:21.737Z,97889.47
2023-03-01T03:06:39.185Z,97884.47
2023-03-01T03:09:10.224Z,97895.47
2023-03-01T03:11:41.616Z,97892.97
2023-03-01T03:17:12.466Z,97891.19
2023-03-01T03:19:42.482Z,97891.25
2023-03-01T03:25:15.437Z,97880.53
2023-03-01T03:27:52.190Z,97890.78
2023-03-01T03:30:24.197Z,97886.16
2023-03-01T03:36:30.382Z,97885.03
2023-03-01T03:39:03.847Z,97883.53
2023-03-01T03:41:35.130Z,97895.28
2023-03-01T03:44:03.037Z,97888.19
2023-03-01T03:46:48.970Z,97889.22
2023-03-01T03:49:25.479Z,97884.66
2023-03-01T03:51:52.709Z,97885.97
2023-03-01T03:54:19.523Z,97881.41
2023-03-01T03:57:04.795Z,97882.59
2023-03-01T03:59:33.683Z,97886.69
2023-03-01T04:02:00.865Z,97889.75
2023-03-01T04:04:31.078Z,97881.84
2023-03-01T04:06:58.145Z,97879.81
2023-03-01T04:09:41.209Z,97890.41
2023-03-01T04:15:15.847Z,97891.91
2023-03-01T04:21:11.706Z,97884.66
2023-03-01T04:23:43.180Z,97891.56
2023-03-01T04:26:40.238Z,97877.56
2023-03-01T04:29:13.126Z,97886.16
2023-03-01T04:31:53.585Z,97887.84
2023-03-01T04:34:21.022Z,97892.56
2023-03-01T04:36:51.593Z,97885.50
2023-03-01T04:39:28.425Z,97894.91
2023-03-01T04:42:33.976Z,97890.91
2023-03-01T04:45:20.743Z,97890.25
2023-03-01T04:48:20.517Z,97879.97
2023-03-01T04:50:49.063Z,97864.97
2023-03-01T04:53:30.594Z,97879.91
2023-03-01T04:55:58.122Z,97878.78
2023-03-01T04:58:26.730Z,97890.78
2023-03-01T05:01:07.361Z,97888.19
2023-03-01T05:03:35.050Z,97872.69
2023-03-01T05:06:15.389Z,97888.19
2023-03-01T05:08:44.191Z,97884.91
2023-03-01T05:11:23.343Z,97885.97
2023-03-01T05:13:56.006Z,97881.84
2023-03-01T05:18:40.426Z,97881.66
2023-03-01T05:19:27.181Z,97880.75
2023-03-01T05:22:05.362Z,97879.69
2023-03-01T05:27:34.850Z,97881.84
2023-03-01T05:30:17.746Z,97882.69
2023-03-01T05:32:50.778Z,97894.16
2023-03-01T05:35:19.052Z,97897.94
2023-03-01T05:40:39.145Z,97895.53
2023-03-01T05:43:26.165Z,97898.16
2023-03-01T05:46:17.575Z,97902.50
2023-03-01T05:48:58.271Z,97903.63
2023-03-01T05:51:25.249Z,97903.63
2023-03-01T05:53:55.484Z,97912.03
2023-03-01T05:56:28.974Z,97902.78
2023-03-01T05:59:07.070Z,97893.63
2023-03-01T06:01:35.891Z,97899.69
2023-03-01T06:04:05.496Z,97908.19
2023-03-01T06:06:48.696Z,97905.66
2023-03-01T06:09:17.944Z,97903.81
2023-03-01T06:11:45.166Z,97891.50
2023-03-01T06:14:21.864Z,97901.78
2023-03-01T06:17:16.027Z,97913.16
2023-03-01T06:19:42.794Z,97898.41
2023-03-01T06:22:11.390Z,97905.97
2023-03-01T06:24:43.680Z,97908.66
2023-03-01T06:27:13.731Z,97914.66
2023-03-01T06:30:31.652Z,97907.00
2023-03-01T06:33:46.674Z,97909.59
2023-03-01T06:36:14.143Z,97912.22
2023-03-01T06:38:41.825Z,97911.38
2023-03-01T06:41:09.461Z,97911.88
2023-03-01T06:43:48.609Z,97915.97
2023-03-01T06:46:19.438Z,97911.31
2023-03-01T06:48:53.374Z,97915.69
2023-03-01T06:51:20.559Z,97912.63
2023-03-01T06:53:51.717Z,97917.84
2023-03-01T06:56:43.859Z,97910.78
2023-03-01T06:59:12.074Z,97910.38
2023-03-01T07:01:41.020Z,97917.50
2023-03-01T07:04:20.660Z,97903.84
2023-03-01T07:07:44.492Z,97914.69
2023-03-01T07:10:13.121Z,97921.75
2023-03-01T07:12:40.232Z,97911.13
2023-03-01T07:15:07.619Z,97908.91
2023-03-01T07:17:34.465Z,97905.34
2023-03-01T07:20:01.162Z,97909.38
2023-03-01T07:22:28.023Z,97913.94
2023-03-01T07:24:55.164Z,97904.63
2023-03-01T07:27:21.890Z,97915.78
2023-03-01T07:29:48.625Z,97913.94
2023-03-01T07:32:15.463Z,97910.56
2023-03-01T07:34:45.295Z,97914.59
2023-03-01T07:37:12.423Z,97910.38
2023-03-01T07:39:39.156Z,97905.94
2023-03-01T07:42:06.050Z,97908.38
2023-03-01T07:44:33.160Z,97899.41
2023-03-01T07:47:00.239Z,97907.13
2023-03-01T07:49:29.876Z,97906.31
2023-03-01T07:51:57.568Z,97913.59
2023-03-01T07:54:24.650Z,97912.38
2023-03-01T07:56:51.463Z,97906.13
2023-03-01T07:59:18.307Z,97907.50
2023-03-01T08:01:47.914Z,97908.16
2023-03-01T08:04:14.935Z,97908.38
2023-03-01T08:06:42.241Z,97902.94
2023-03-01T08:09:09.898Z,97900.97
2023-03-01T08:11:36.718Z,97900.16
2023-03-01T08:14:15.237Z,97903.69
2023-03-01T08:16:42.110Z,97907.72
2023-03-01T08:19:12.113Z,97896.22
2023-03-01T08:21:39.706Z,97891.50
2023-03-01T08:24:08.229Z,97895.53
2023-03-01T08:26:35.165Z,97893.81
2023-03-01T08:29:02.722Z,97893.09
2023-03-01T08:31:33.674Z,97895.53
2023-03-01T08:34:02.706Z,97898.69
2023-03-01T08:36:45.762Z,97896.44
2023-03-01T08:39:16.307Z,97897.19
2023-03-01T08:41:43.533Z,97895.88
2023-03-01T08:44:12.839Z,97903.72
2023-03-01T08:46:42.169Z,97894.16
2023-03-01T08:49:12.800Z,97896.22
2023-03-01T08:51:39.880Z,97900.63
2023-03-01T08:54:31.911Z,97909.47
2023-03-01T08:57:28.491Z,97905.91
2023-03-01T08:59:57.399Z,97908.34
2023-03-01T09:02:24.445Z,97907.44
2023-03-01T09:05:20.300Z,97898.66
2023-03-01T09:08:00.403Z,97904.72
2023-03-01T09:10:34.497Z,97905.72
2023-03-01T09:13:14.436Z,97902.22
2023-03-01T09:15:43.564Z,97896.88
2023-03-01T09:18:14.271Z,97909.09
2023-03-01T09:20:43.755Z,97905.66
2023-03-01T09:23:20.279Z,97903.97
2023-03-01T09:25:47.134Z,97910.66
2023-03-01T09:28:29.184Z,97903.69
2023-03-01T09:31:01.293Z,97898.88
2023-03-01T09:33:33.422Z,97893.22
2023-03-01T09:36:07.024Z,97896.97
2023-03-01T09:42:24.626Z,97893.97
2023-03-01T09:48:14.183Z,97889.16
2023-03-01T09:50:44.201Z,97893.16
2023-03-01T09:53:16.200Z,97883.34
2023-03-01T09:56:00.316Z,97883.34
2023-03-01T09:58:41.554Z,97883.97
2023-03-01T10:01:17.834Z,97872.50
2023-03-01T10:07:03.757Z,97874.44
2023-03-01T10:10:36.242Z,97878.84
2023-03-01T10:13:25.908Z,97878.59
2023-03-01T10:16:11.796Z,97879.25
2023-03-01T10:18:44.708Z,97871.31
2023-03-01T10:21:30.140Z,97874.66
2023-03-01T10:24:20.185Z,97871.97
2023-03-01T10:26:57.255Z,97866.47
2023-03-01T10:29:41.780Z,97864.44
2023-03-01T10:32:12.624Z,97857.69
2023-03-01T10:34:40.124Z,97860.94
2023-03-01T10:37:36.047Z,97862.72
2023-03-01T10:40:16.286Z,97856.28
2023-03-01T10:42:51.349Z,97843.50
2023-03-01T10:49:13.854Z,97841.03
2023-03-01T10:52:42.509Z,97846.47
2023-03-01T10:56:04.373Z,97838.50
2023-03-01T10:58:42.784Z,97835.16
2023-03-01T11:01:34.339Z,97838.50
2023-03-01T11:04:07.337Z,97839.34
2023-03-01T11:07:07.991Z,97830.66
2023-03-01T11:10:56.088Z,97839.53
2023-03-01T11:13:23.407Z,97829.06
2023-03-01T11:16:06.586Z,97822.16
2023-03-01T11:22:24.408Z,97815.59
2023-03-01T11:25:07.345Z,97817.38
2023-03-01T11:27:43.262Z,97807.94
2023-03-01T11:34:15.576Z,97809.53
2023-03-01T11:36:50.566Z,97797.47
2023-03-01T11:39:33.660Z,97797.59
2023-03-01T11:42:19.125Z,97787.56
2023-03-01T11:44:50.863Z,97781.59
2023-03-01T11:47:23.827Z,97783.06
2023-03-01T11:49:56.900Z,97789.75
2023-03-01T11:52:42.352Z,97786.41
2023-03-01T11:55:33.995Z,97785.97
2023-03-01T11:58:25.917Z,97772.59
2023-03-01T12:01:15.982Z,97774.06
2023-03-01T12:04:20.238Z,97770.22
2023-03-01T12:07:02.753Z,97777.22
2023-03-01T12:09:39.873Z,97777.22
2023-03-01T12:12:33.336Z,97771.69
2023-03-01T12:15:30.849Z,97770.09
2023-03-01T12:18:00.556Z,97762.97
2023-03-01T12:20:42.809Z,97764.03
2023-03-01T12:23:20.771Z,97766.53
2023-03-01T12:26:24.759Z,97762.31
2023-03-01T12:29:31.307Z,97764.94
2023-03-01T12:32:25.673Z,97757.09
2023-03-01T12:35:26.885Z,97754.41
2023-03-01T12:38:14.742Z,97759.44
2023-03-01T12:41:09.135Z,97757.84
2023-03-01T12:47:47.135Z,97755.44
2023-03-01T12:50:59.177Z,97755.44
2023-03-01T12:54:12.019Z,97748.53
2023-03-01T12:56:39.538Z,97751.47
2023-03-01T12:59:35.762Z,97751.06
2023-03-01T13:02:08.389Z,97741.94
2023-03-01T13:05:05.594Z,97743.53
2023-03-01T13:08:32.043Z,97744.97
2023-03-01T13:11:35.456Z,97748.34
2023-03-01T13:14:27.558Z,97750.19
2023-03-01T13:16:55.962Z,97743.09
2023-03-01T13:19:33.760Z,97750.00
2023-03-01T13:22:03.240Z,97744.78
2023-03-01T13:24:43.936Z,97745.28
2023-03-01T13:27:35.790Z,97745.84
2023-03-01T13:30:07.789Z,97755.16
2023-03-01T13:32:44.378Z,97749.59
2023-03-01T13:35:19.276Z,97750.63
2023-03-01T13:37:50.088Z,97750.63
2023-03-01T13:43:55.136Z,97740.16
2023-03-01T13:53:28.027Z,97743.63
2023-03-01T13:56:36.087Z,97742.66
2023-03-01T14:02:37.899Z,97737.44
2023-03-01T14:05:05.516Z,97735.97
2023-03-01T14:10:38.392Z,97735.13
2023-03-01T14:13:45.119Z,97744.13
2023-03-01T14:16:28.856Z,97726.72
2023-03-01T14:20:08.512Z,97723.78
2023-03-01T14:24:04.907Z,97722.13
2023-03-01T14:25:37.394Z,97734.31
2023-03-01T14:28:26.193Z,97722.91
2023-03-01T14:30:58.754Z,97728.25
2023-03-01T14:33:53.871Z,97726.69
2023-03-01T14:36:28.797Z,97727.09
2023-03-01T14:39:06.481Z,97726.47
2023-03-01T14:41:37.307Z,97727.88
2023-03-01T14:44:38.674Z,97731.31
2023-03-01T14:47:14.825Z,97722.00
2023-03-01T14:49:42.956Z,97719.03
2023-03-01T14:52:24.383Z,97730.22
2023-03-01T14:54:56.033Z,97735.06
2023-03-01T15:00:32.229Z,97731.94
2023-03-01T15:06:52.255Z,97726.22
2023-03-01T15:09:20.242Z,97727.03
2023-03-01T15:12:37.192Z,97729.97
2023-03-01T15:16:32.784Z,97723.53
2023-03-01T15:19:14.130Z,97729.03
2023-03-01T15:22:50.061Z,97724.41
2023-03-01T15:25:58.295Z,97728.03
2023-03-01T15:31:41.952Z,97721.78
2023-03-01T15:34:24.154Z,97721.78
2023-03-01T15:36:56.125Z,97735.75
2023-03-01T15:40:02.851Z,97739.47
2023-03-01T15:42:30.217Z,97736.13
2023-03-01T15:45:18.397Z,97737.34
2023-03-01T15:48:43.437Z,97738.00
2023-03-01T15:51:41.528Z,97734.44
2023-03-01T15:54:25.133Z,97723.34
2023-03-01T15:56:52.035Z,97728.34
2023-03-01T16:03:59.989Z,97730.59
2023-03-01T16:06:30.385Z,97732.44
2023-03-01T16:12:29.201Z,97732.44
2023-03-01T16:16:04.946Z,97727.22
2023-03-01T16:17:50.268Z,97735.41
2023-03-01T16:20:27.350Z,97737.69
2023-03-01T16:22:57.128Z,97744.03
2023-03-01T16:25:31.263Z,97738.22
2023-03-01T16:28:48.576Z,97745.34
2023-03-01T16:34:26.091Z,97750.19
2023-03-01T16:37:03.788Z,97754.38
2023-03-01T16:45:43.091Z,97749.41
2023-03-01T16:48:38.669Z,97756.72
2023-03-01T16:51:42.470Z,97759.09
2023-03-01T16:54:48.777Z,97756.31
2023-03-01T16:57:35.396Z,97759.69
2023-03-01T17:00:07.816Z,97742.31
2023-03-01T17:02:52.732Z,97745.88
2023-03-01T17:05:25.144Z,97751.09
2023-03-01T17:07:55.792Z,97739.81
2023-03-01T17:10:25.875Z,97739.16
2023-03-01T17:12:55.016Z,97734.13
2023-03-01T17:15:36.120Z,97729.09
2023-03-01T17:18:46.784Z,97730.06
2023-03-01T17:21:20.199Z,97732.94
2023-03-01T17:33:10.825Z,97719.59
2023-03-01T17:34:48.813Z,97723.53
2023-03-01T17:38:13.591Z,97728.03
2023-03-01T17:40:48.862Z,97717.09
2023-03-01T17:43:28.391Z,97713.44
2023-03-01T17:46:00.071Z,97713.53
2023-03-01T17:48:29.835Z,97713.28
2023-03-01T17:50:57.437Z,97707.41
2023-03-01T17:53:24.533Z,97722.22
2023-03-01T17:56:58.590Z,97715.88
2023-03-01T17:59:34.807Z,97722.16
2023-03-01T18:02:06.137Z,97720.72
2023-03-01T18:07:23.812Z,97714.78
2023-03-01T18:10:12.847Z,97712.72
2023-03-01T18:12:42.798Z,97716.81
2023-03-01T18:18:38.680Z,97712.34
2023-03-01T18:21:09.848Z,97714.84
2023-03-01T18:26:28.125Z,97716.06
2023-03-01T18:29:03.660Z,97724.81
2023-03-01T18:31:33.837Z,97714.38
2023-03-01T18:34:03.724Z,97710.75
2023-03-01T18:36:36.345Z,97713.25
2023-03-01T18:39:11.160Z,97720.91
2023-03-01T18:42:27.956Z,97714.19
2023-03-01T18:45:00.703Z,97707.00
2023-03-01T18:47:39.726Z,97700.97
2023-03-01T18:50:21.626Z,97709.56
2023-03-01T18:52:54.360Z,97716.63
2023-03-01T18:55:33.973Z,97711.59
2023-03-01T18:58:30.733Z,97719.63
2023-03-01T19:03:48.778Z,97700.06
2023-03-01T19:06:16.520Z,97695.22
2023-03-01T19:08:50.749Z,97691.22
2023-03-01T19:11:33.505Z,97697.00
2023-03-01T19:14:04.977Z,97693.94
2023-03-01T19:16:46.475Z,97692.69
2023-03-01T19:26:57.618Z,97686.94
2023-03-01T19:29:24.490Z,97686.00
2023-03-01T19:31:55.520Z,97694.47
2023-03-01T19:34:24.646Z,97698.38
2023-03-01T19:40:06.453Z,97703.78
2023-03-01T19:45:45.557Z,97705.94
2023-03-01T19:48:42.924Z,97711.78
2023-03-01T19:51:10.080Z,97705.31
2023-03-01T19:53:46.193Z,97710.03
2023-03-01T19:56:40.100Z,97713.38
2023-03-01T20:01:48.726Z,97707.16
2023-03-01T20:04:15.493Z,97711.13
2023-03-01T20:09:48.374Z,97700.97
2023-03-01T20:12:19.423Z,97699.22
2023-03-01T20:14:52.321Z,97702.69
2023-03-01T20:17:19.120Z,97709.38
2023-03-01T20:19:49.515Z,97706.31
2023-03-01T20:22:37.832Z,97703.50
2023-03-01T20:25:20.713Z,97708.81
2023-03-01T20:28:52.059Z,97707.69
2023-03-01T20:34:34.337Z,97707.69
2023-03-01T20:37:36.346Z,97710.28
2023-03-01T20:40:47.201Z,97713.13
2023-03-01T20:43:34.943Z,97707.31
2023-03-01T20:46:07.980Z,97712.53
2023-03-01T20:48:35.596Z,97710.09
2023-03-01T20:51:07.781Z,97717.00
2023-03-01T20:53:35.139Z,97709.19
2023-03-01T20:56:17.536Z,97703.13
2023-03-01T20:58:44.628Z,97701.09
2023-03-01T21:01:16.839Z,97706.38
2023-03-01T21:03:45.280Z,97713.66
2023-03-01T21:06:15.898Z,97704.72
2023-03-01T21:08:43.266Z,97703.69
2023-03-01T21:11:11.092Z,97706.59
2023-03-01T21:13:46.141Z,97718.88
2023-03-01T21:16:17.138Z,97715.69
2023-03-01T21:18:44.250Z,97714.88
2023-03-01T21:21:19.885Z,97723.53
2023-03-01T21:23:49.292Z,97724.25
2023-03-01T21:26:21.275Z,97733.00
2023-03-01T21:28:58.831Z,97726.97
2023-03-01T21:31:38.071Z,97726.78
2023-03-01T21:34:06.972Z,97725.94
2023-03-01T21:36:37.624Z,97722.22
2023-03-01T21:39:10.264Z,97722.69
2023-03-01T21:41:39.140Z,97720.75
2023-03-01T21:44:28.903Z,97730.97
2023-03-01T21:46:56.505Z,97728.94
2023-03-01T21:49:23.513Z,97732.44
2023-03-01T21:51:56.669Z,97727.06
2023-03-01T21:54:27.412Z,97741.22
2023-03-01T21:57:07.019Z,97732.09
2023-03-01T22:02:24.665Z,97732.88
2023-03-01T22:08:45.383Z,97720.19
2023-03-01T22:14:08.411Z,97716.66
2023-03-01T22:16:44.055Z,97716.94
2023-03-01T22:19:50.104Z,97715.16
2023-03-01T22:22:21.835Z,97716.66
2023-03-01T22:24:51.978Z,97717.31
2023-03-01T22:28:17.922Z,97717.47
2023-03-01T22:33:52.585Z,97719.44
2023-03-01T22:36:26.709Z,97724.84
2023-03-01T22:39:05.314Z,97708.16
2023-03-01T22:41:47.834Z,97716.81
2023-03-01T22:44:20.840Z,97721.22
2023-03-01T22:46:58.616Z,97731.47
2023-03-01T22:49:35.794Z,97734.81
2023-03-01T22:52:08.307Z,97725.22
2023-03-01T22:54:50.052Z,97725.78
2023-03-01T22:57:19.844Z,97728.84
2023-03-01T22:59:51.382Z,97731.09
2023-03-01T23:02:43.380Z,97735.91
2023-03-01T23:05:13.052Z,97733.97
2023-03-01T23:07:40.700Z,97730.63
2023-03-01T23:10:18.143Z,97732.47
2023-03-01T23:12:49.245Z,97733.31
2023-03-01T23:15:17.349Z,97735.66
2023-03-01T23:17:45.175Z,97730.44
2023-03-01T23:20:16.821Z,97730.22
2023-03-01T23:23:50.536Z,97721.50
2023-03-01T23:25:59.699Z,97718.88
2023-03-01T23:28:34.125Z,97719.78
2023-03-01T23:31:07.690Z,97725.88
2023-03-01T23:34:25.999Z,97721.84
2023-03-01T23:40:07.908Z,97717.19
2023-03-01T23:42:39.401Z,97722.69
2023-03-01T23:45:26.282Z,97722.06
2023-03-01T23:48:03.649Z,97731.59
2023-03-01T23:50:30.289Z,97725.88
2023-03-01T23:52:57.408Z,97729.34
2023-03-01T23:55:26.445Z,97725.25
2023-03-01T23:58:02.618Z,97723.81
